Time;durP1;ratioP1;P1;durP2;ratioP2;P2;SDS_P1;SDS_P2;PMS_P1;PMS_P2;Temp;Humidity;BMP_temperature;BMP_pressure;BME280_temperature;BME280_humidity;BME280_pressure;Samples;Min_cycle;Max_cycle;Signal;HPM_P1;HPM_P2
2021/11/09 00:00:23;;;;;;;11.77;3.40;;;;;;;8.45;85.80;101760.81;5006342;28;20230;-73
2021/11/09 00:02:49;;;;;;;12.30;3.80;;;;;;;8.45;86.38;101763.47;5008380;28;20203;-73
2021/11/09 00:05:19;;;;;;;9.83;3.53;;;;;;;8.44;86.32;101765.25;5005249;28;20298;-73
2021/11/09 00:07:50;;;;;;;11.60;3.57;;;;;;;8.45;86.26;101768.78;5000517;28;20258;-72
2021/11/09 00:10:17;;;;;;;10.07;3.37;;;;;;;8.46;86.15;101771.38;5008643;28;21643;-71
2021/11/09 00:12:49;;;;;;;6.87;3.07;;;;;;;8.45;86.27;101764.34;5002128;28;20212;-71
2021/11/09 00:15:18;;;;;;;8.07;2.93;;;;;;;8.46;86.95;101765.22;5005332;28;20287;-73
2021/11/09 00:17:45;;;;;;;9.40;3.13;;;;;;;8.45;86.93;101766.13;5013727;28;20613;-73
2021/11/09 00:20:14;;;;;;;7.27;2.87;;;;;;;8.44;86.00;101765.25;5010133;28;20227;-72
2021/11/09 00:22:43;;;;;;;7.77;3.30;;;;;;;8.44;86.33;101772.34;5010793;28;20227;-72
2021/11/09 00:25:12;;;;;;;10.40;3.63;;;;;;;8.43;86.55;101766.19;5009881;28;20203;-73
2021/11/09 00:27:39;;;;;;;8.03;3.77;;;;;;;8.43;86.57;101770.63;5010376;28;20234;-73
2021/11/09 00:30:07;;;;;;;8.60;3.43;;;;;;;8.43;86.52;101766.19;5010696;28;20226;-73
2021/11/09 00:32:34;;;;;;;8.17;2.93;;;;;;;8.42;86.60;101772.41;5009992;28;20211;-72
2021/11/09 00:35:00;;;;;;;5.23;2.43;;;;;;;8.41;86.93;101762.75;5010421;28;20206;-73
2021/11/09 00:37:27;;;;;;;6.30;2.47;;;;;;;8.40;86.17;101766.31;5009305;28;20207;-73
2021/11/09 00:39:55;;;;;;;8.50;2.70;;;;;;;8.41;86.39;101769.84;5010265;28;20237;-73
2021/11/09 00:42:22;;;;;;;9.80;3.07;;;;;;;8.40;87.27;101763.66;5009690;28;20203;-72
2021/11/09 00:44:48;;;;;;;7.87;2.80;;;;;;;8.41;86.86;101769.84;5010304;28;20211;-74
2021/11/09 00:47:15;;;;;;;10.73;3.07;;;;;;;8.39;86.84;101777.84;5010271;28;20472;-73
2021/11/09 00:49:41;;;;;;;7.93;2.70;;;;;;;8.38;86.89;101776.13;5010124;28;20247;-73
2021/11/09 00:52:08;;;;;;;7.77;2.33;;;;;;;8.38;87.42;101777.91;5009918;28;20660;-73
2021/11/09 00:54:35;;;;;;;6.67;2.83;;;;;;;8.38;87.49;101775.25;5010479;28;21453;-73
2021/11/09 00:57:04;;;;;;;6.97;2.60;;;;;;;8.38;86.92;101781.44;5009622;28;20195;-73
2021/11/09 00:59:31;;;;;;;8.27;2.33;;;;;;;8.38;87.23;101780.56;5010137;28;20222;-73
2021/11/09 01:01:58;;;;;;;11.47;2.37;;;;;;;8.38;86.93;101783.22;5009615;28;20214;-73
2021/11/09 01:04:26;;;;;;;5.80;2.37;;;;;;;8.37;86.84;101781.47;5010455;28;20210;-73
2021/11/09 01:06:53;;;;;;;8.33;2.73;;;;;;;8.37;86.63;101778.84;5008622;28;20223;-73
2021/11/09 01:09:21;;;;;;;8.67;2.57;;;;;;;8.38;86.54;101777.91;5009949;28;20234;-72
2021/11/09 01:11:48;;;;;;;7.10;2.33;;;;;;;8.37;86.59;101777.03;5009728;28;20203;-73
2021/11/09 01:14:17;;;;;;;9.47;2.50;;;;;;;8.38;87.14;101778.78;5010585;28;20562;-73
2021/11/09 01:16:44;;;;;;;9.87;2.53;;;;;;;8.39;87.30;101774.34;5009165;28;20211;-73
2021/11/09 01:19:11;;;;;;;11.83;3.30;;;;;;;8.39;86.66;101779.66;5011777;28;20227;-73
2021/11/09 01:21:38;;;;;;;7.57;3.03;;;;;;;8.38;86.94;101773.47;5013756;28;20206;-73
2021/11/09 01:24:06;;;;;;;6.97;2.80;;;;;;;8.39;86.75;101784.94;5013622;28;20235;-73
2021/11/09 01:26:35;;;;;;;6.93;3.30;;;;;;;8.40;86.99;101789.34;5013773;28;20235;-73
2021/11/09 01:29:04;;;;;;;6.70;2.60;;;;;;;8.39;86.88;101779.66;5016947;28;20199;-73
2021/11/09 01:31:33;;;;;;;6.57;3.20;;;;;;;8.38;87.01;101785.88;5014579;28;20213;-73
2021/11/09 01:34:00;;;;;;;11.17;3.20;;;;;;;8.38;86.83;101789.41;5013416;28;20343;-72
2021/11/09 01:36:27;;;;;;;8.50;3.13;;;;;;;8.38;87.34;101792.06;5012961;28;20206;-71
2021/11/09 01:38:54;;;;;;;4.97;2.57;;;;;;;8.38;86.94;101791.19;5012450;28;20687;-73
2021/11/09 01:41:22;;;;;;;8.23;2.80;;;;;;;8.38;87.14;101792.06;5014035;28;20210;-72
2021/11/09 01:43:50;;;;;;;11.23;2.50;;;;;;;8.38;87.43;101780.56;5013475;28;20218;-72
2021/11/09 01:46:18;;;;;;;5.10;2.57;;;;;;;8.38;86.93;101788.53;5012549;28;20230;-72
2021/11/09 01:48:47;;;;;;;8.87;2.87;;;;;;;8.38;87.01;101789.41;5013174;28;20211;-71
2021/11/09 01:51:16;;;;;;;6.90;2.47;;;;;;;8.38;87.30;101791.19;5015889;28;20206;-73
2021/11/09 01:53:44;;;;;;;7.83;2.73;;;;;;;8.38;87.33;101791.19;5018924;28;20293;-72
2021/11/09 01:56:14;;;;;;;7.73;2.80;;;;;;;8.38;87.35;101780.56;5018615;28;20199;-72
2021/11/09 01:58:41;;;;;;;6.23;2.77;;;;;;;8.38;87.02;101783.22;5019945;28;20774;-72
2021/11/09 02:01:11;;;;;;;9.07;2.80;;;;;;;8.36;87.41;101777.97;5012266;28;20226;-73
2021/11/09 02:03:41;;;;;;;8.83;2.73;;;;;;;8.34;87.58;101783.31;5014770;28;20203;-72
2021/11/09 02:06:10;;;;;;;9.73;3.07;;;;;;;8.35;87.45;101778.88;5010680;28;20216;-72
2021/11/09 02:08:37;;;;;;;8.13;3.43;;;;;;;8.34;88.02;101791.28;5018271;28;20202;-72
2021/11/09 02:11:04;;;;;;;10.03;3.80;;;;;;;8.34;87.36;101782.47;5014863;28;20226;-73
2021/11/09 02:13:30;;;;;;;9.37;3.40;;;;;;;8.32;88.03;101782.50;5012376;28;20203;-73
2021/11/09 02:15:57;;;;;;;7.73;3.33;;;;;;;8.33;87.73;101781.59;5012837;28;20207;-72
2021/11/09 02:18:25;;;;;;;7.50;3.37;;;;;;;8.32;87.58;101790.47;5013254;28;20217;-72
2021/11/09 02:20:57;;;;;;;8.57;3.47;;;;;;;8.33;88.32;101788.69;5012633;28;20227;-73
2021/11/09 02:23:24;;;;;;;11.37;3.60;;;;;;;8.32;87.78;101782.50;5010932;28;20619;-72
2021/11/09 02:25:51;;;;;;;9.27;3.30;;;;;;;8.33;87.73;101781.59;5012737;28;20207;-72
2021/11/09 02:28:18;;;;;;;6.97;3.40;;;;;;;8.34;87.78;101785.13;5023524;28;20227;-72
2021/11/09 02:30:46;;;;;;;7.87;3.93;;;;;;;8.35;87.75;101786.84;5010690;28;20227;-72
2021/11/09 02:33:13;;;;;;;8.70;4.17;;;;;;;8.37;87.80;101781.47;5013529;28;20293;-72
2021/11/09 02:35:40;;;;;;;7.53;3.90;;;;;;;8.37;88.84;101785.00;5015934;28;20736;-72
2021/11/09 02:38:08;;;;;;;10.97;4.30;;;;;;;8.38;88.41;101786.75;5012439;28;20676;-73
2021/11/09 02:40:35;;;;;;;11.07;3.53;;;;;;;8.39;88.32;101787.59;5012154;28;20326;-72
2021/11/09 02:43:06;;;;;;;10.23;4.23;;;;;;;8.40;88.08;101786.69;5012041;28;20411;-72
2021/11/09 02:45:39;;;;;;;10.87;4.87;;;;;;;8.40;88.52;101786.69;5012036;28;20212;-72
2021/11/09 02:48:11;;;;;;;9.60;3.90;;;;;;;8.40;88.82;101784.91;5011615;28;20227;-72
2021/11/09 02:50:40;;;;;;;9.37;4.13;;;;;;;8.40;88.10;101786.69;5012109;28;20710;-72
2021/11/09 02:53:12;;;;;;;10.07;4.73;;;;;;;8.40;88.28;101786.69;5012216;28;20630;-72
2021/11/09 02:55:41;;;;;;;8.60;4.57;;;;;;;8.41;88.33;101785.78;5007852;28;20217;-72
2021/11/09 02:58:17;;;;;;;8.37;4.30;;;;;;;8.40;88.55;101795.53;5012100;28;20254;-71
2021/11/09 03:00:54;;;;;;;6.73;3.90;;;;;;;8.40;88.13;101799.97;5011724;28;20725;-73
2021/11/09 03:03:27;;;;;;;6.80;3.50;;;;;;;8.39;88.38;101796.44;5008948;28;20265;-72
2021/11/09 03:06:03;;;;;;;9.33;4.20;;;;;;;8.39;87.77;101796.44;5010283;28;20591;-73
2021/11/09 03:08:34;;;;;;;8.37;3.93;;;;;;;8.40;88.58;101803.47;5011680;28;20222;-73
2021/11/09 03:11:02;;;;;;;10.37;4.30;;;;;;;8.40;88.50;101806.13;5011160;28;20222;-73
2021/11/09 03:13:29;;;;;;;8.23;3.50;;;;;;;8.40;88.97;101803.47;5002857;28;20228;-73
2021/11/09 03:16:01;;;;;;;6.70;3.80;;;;;;;8.40;88.25;101808.78;5011651;28;20207;-73
2021/11/09 03:18:29;;;;;;;6.63;3.67;;;;;;;8.40;88.55;101811.44;5008546;28;20206;-73
2021/11/09 03:23:02;;;;;;;9.97;4.50;;;;;;;8.41;87.89;101813.19;5006933;28;20246;-73
2021/11/09 03:40:25;;;;;;;15.60;4.93;;;;;;;8.40;88.83;101826.50;5029268;22;20269;-68
2021/11/09 03:45:37;;;;;;;14.40;5.03;;;;;;;8.38;88.13;101828.34;5020738;28;20213;-68
2021/11/09 03:48:06;;;;;;;8.03;4.67;;;;;;;8.35;88.37;101821.34;5014332;28;20238;-68
2021/11/09 03:50:34;;;;;;;12.53;4.77;;;;;;;8.33;88.41;101826.72;5001000;28;20740;-68
2021/11/09 03:53:04;;;;;;;14.27;5.50;;;;;;;8.32;88.54;101830.28;5011726;28;20302;-68
2021/11/09 03:55:40;;;;;;;14.47;5.37;;;;;;;8.31;88.29;101831.19;4993764;28;20251;-68
2021/11/09 03:58:15;;;;;;;10.57;6.03;;;;;;;8.31;88.45;101833.81;4998861;28;20290;-68
2021/11/09 04:00:45;;;;;;;10.20;5.87;;;;;;;8.32;88.36;101832.06;4999195;28;20230;-68
2021/11/09 04:03:21;;;;;;;9.40;5.00;;;;;;;8.31;88.30;101831.19;4995303;28;20204;-68
2021/11/09 04:05:51;;;;;;;11.40;5.80;;;;;;;8.31;88.32;101827.66;4989376;28;20586;-70
2021/11/09 04:08:30;;;;;;;10.53;5.37;;;;;;;8.31;88.46;101835.63;4994277;28;20313;-68
2021/11/09 04:11:02;;;;;;;10.33;5.23;;;;;;;8.31;88.47;101839.13;5011369;28;20647;-70
2021/11/09 04:13:35;;;;;;;11.13;6.40;;;;;;;8.32;88.86;101843.56;5001505;28;20207;-70
2021/11/09 04:16:20;;;;;;;12.23;5.13;;;;;;;8.32;88.91;101843.56;4987894;28;20294;-69
2021/11/09 04:18:55;;;;;;;8.10;5.70;;;;;;;8.32;88.19;101840.03;4986628;28;20214;-70
2021/11/09 04:24:41;;;;;;;11.97;5.90;;;;;;;8.32;89.19;101853.31;5000123;28;20211;-68
2021/11/09 04:27:24;;;;;;;16.93;6.17;;;;;;;8.31;89.15;101856.84;4997685;28;20325;-70
2021/11/09 04:30:13;;;;;;;12.43;5.80;;;;;;;8.31;88.86;101855.06;4992601;28;20232;-70
2021/11/09 05:08:16;;;;;;;6.77;4.23;;;;;;;8.18;89.24;101861.72;4974813;28;20219;-70
2021/11/09 05:08:41;;;;;;;8.80;4.40;;;;;;;8.15;88.82;101860.94;4969600;28;20318;-70
2021/11/09 05:11:09;;;;;;;9.60;5.37;;;;;;;8.14;88.65;101865.38;4980312;28;20232;-70
2021/11/09 05:13:35;;;;;;;10.37;5.17;;;;;;;8.13;88.60;101866.31;4983427;28;20211;-70
2021/11/09 05:16:03;;;;;;;11.87;5.37;;;;;;;8.13;88.88;101866.31;4988603;28;20220;-68
2021/11/09 05:18:30;;;;;;;11.53;5.63;;;;;;;8.12;88.49;101869.88;4980912;28;20207;-68
2021/11/09 05:20:56;;;;;;;10.60;4.97;;;;;;;8.11;89.26;101873.44;4975336;28;20235;-70
2021/11/09 05:23:23;;;;;;;11.93;5.17;;;;;;;8.10;88.76;101877.03;4981264;28;20597;-69
2021/11/09 05:25:50;;;;;;;9.93;5.10;;;;;;;8.09;89.02;101867.31;4981358;28;20210;-69
2021/11/09 05:28:17;;;;;;;11.23;5.33;;;;;;;8.07;88.85;101874.47;4980658;28;20231;-70
2021/11/09 05:30:48;;;;;;;11.97;5.67;;;;;;;8.05;88.93;101871.03;4980300;28;20237;-69
2021/11/09 05:33:17;;;;;;;12.20;6.57;;;;;;;8.05;89.33;101883.41;4984405;28;20227;-69
2021/11/09 05:35:43;;;;;;;14.03;7.20;;;;;;;8.04;89.31;101885.19;4985796;28;20227;-68
2021/11/09 05:38:11;;;;;;;13.47;6.70;;;;;;;8.05;88.87;101883.41;4983839;28;20219;-69
2021/11/09 05:40:40;;;;;;;14.27;8.03;;;;;;;8.06;89.58;101893.13;4980734;28;20239;-68
2021/11/09 05:43:07;;;;;;;19.53;10.23;;;;;;;8.06;89.81;101893.13;4982827;28;20208;-69
2021/11/09 05:45:35;;;;;;;22.70;11.33;;;;;;;8.09;89.21;101893.84;4988483;28;20484;-70
2021/11/09 05:48:01;;;;;;;28.67;12.47;;;;;;;8.10;89.44;101895.59;4979556;28;20228;-70
2021/11/09 05:50:30;;;;;;;31.40;13.13;;;;;;;8.12;89.11;101891.09;4980496;28;20239;-69
2021/11/09 05:52:56;;;;;;;35.53;14.63;;;;;;;8.13;89.83;101903.44;4992802;28;20203;-69
2021/11/09 05:55:23;;;;;;;26.30;13.43;;;;;;;8.16;90.24;101897.19;4982700;28;20200;-70
2021/11/09 05:57:49;;;;;;;27.30;14.03;;;;;;;8.17;90.19;101902.44;4982938;28;20200;-68
2021/11/09 06:00:16;;;;;;;33.73;14.57;;;;;;;8.19;89.44;101902.41;4976500;28;20224;-70
2021/11/09 06:02:44;;;;;;;38.17;16.50;;;;;;;8.20;89.95;101910.31;4980582;28;20661;-68
2021/11/09 06:05:11;;;;;;;34.70;16.80;;;;;;;8.22;89.61;101907.59;4982262;28;20200;-70
2021/11/09 06:07:39;;;;;;;33.37;16.90;;;;;;;8.22;89.44;101921.75;4983976;28;20239;-71
2021/11/09 06:10:06;;;;;;;40.57;17.53;;;;;;;8.23;90.28;101909.34;4980981;28;20223;-70
2021/11/09 06:12:33;;;;;;;31.00;16.07;;;;;;;8.24;89.99;101914.56;4985817;28;20210;-70
2021/11/09 06:14:59;;;;;;;39.40;17.47;;;;;;;8.24;90.00;101909.25;4989296;28;20200;-70
2021/11/09 06:17:26;;;;;;;42.57;18.17;;;;;;;8.26;89.82;101914.53;4978933;28;20223;-69
2021/11/09 06:19:53;;;;;;;42.43;17.60;;;;;;;8.26;89.48;101918.03;4991085;28;20238;-69
2021/11/09 06:22:19;;;;;;;39.00;16.70;;;;;;;8.28;89.98;101921.50;4994077;28;20203;-69
2021/11/09 06:24:47;;;;;;;37.30;16.93;;;;;;;8.29;89.76;101925.91;4991216;28;20204;-68
2021/11/09 06:27:15;;;;;;;40.67;18.20;;;;;;;8.30;89.48;101932.94;4985102;28;20207;-70
2021/11/09 06:29:42;;;;;;;41.07;18.03;;;;;;;8.30;89.69;101930.28;5002280;28;20235;-71
2021/11/09 06:32:08;;;;;;;38.77;18.00;;;;;;;8.32;89.36;101931.16;4989235;28;20203;-70
2021/11/09 06:34:35;;;;;;;36.90;17.10;;;;;;;8.33;89.13;101924.94;5000695;28;20202;-72
2021/11/09 06:37:02;;;;;;;41.03;18.60;;;;;;;8.33;89.67;101935.53;4978105;28;20207;-73
2021/11/09 06:39:28;;;;;;;40.70;17.90;;;;;;;8.34;89.33;101928.44;4980128;28;20207;-72
2021/11/09 06:41:56;;;;;;;37.90;18.53;;;;;;;8.35;88.87;101941.66;4982234;28;20202;-73
2021/11/09 06:44:23;;;;;;;41.97;17.83;;;;;;;8.35;89.39;101946.97;4993250;28;20207;-72
2021/11/09 06:46:49;;;;;;;38.73;17.83;;;;;;;8.35;88.66;101940.81;4987604;28;20708;-73
2021/11/09 06:49:16;;;;;;;37.90;17.93;;;;;;;8.38;88.79;101950.47;5004280;28;20230;-73
2021/11/09 06:51:43;;;;;;;41.87;18.50;;;;;;;8.38;88.77;101950.47;4994872;28;20206;-71
2021/11/09 06:54:09;;;;;;;50.10;18.00;;;;;;;8.40;89.02;101961.91;4998670;28;20204;-73
2021/11/09 06:56:36;;;;;;;38.17;17.47;;;;;;;8.41;89.08;101968.94;4999283;28;20263;-73
2021/11/09 06:59:05;;;;;;;39.70;17.80;;;;;;;8.41;88.65;101967.16;5001542;28;20207;-73
2021/11/09 07:01:32;;;;;;;37.80;17.53;;;;;;;8.42;88.21;101971.50;5000026;28;20318;-73
2021/11/09 07:03:59;;;;;;;43.93;17.73;;;;;;;8.44;88.80;101976.78;4999207;28;20246;-73
2021/11/09 07:06:26;;;;;;;38.47;17.63;;;;;;;8.44;88.47;101980.31;5009217;28;20207;-71
2021/11/09 07:08:53;;;;;;;39.97;17.67;;;;;;;8.46;89.00;101974.94;5011440;28;20241;-73
2021/11/09 07:11:20;;;;;;;43.13;18.53;;;;;;;8.48;88.26;101981.06;4986391;28;20227;-73
2021/11/09 07:13:47;;;;;;;37.67;17.23;;;;;;;8.48;87.87;101975.75;4998830;28;20582;-73
2021/11/09 07:16:16;;;;;;;44.13;19.13;;;;;;;8.49;87.89;101980.16;5001706;28;20578;-73
2021/11/09 07:18:45;;;;;;;42.13;17.43;;;;;;;8.50;87.60;101987.19;5011640;28;20257;-71
2021/11/09 07:21:11;;;;;;;42.90;16.57;;;;;;;8.50;88.06;101988.06;5001116;28;20224;-73
2021/11/09 07:23:38;;;;;;;39.73;17.97;;;;;;;8.52;87.74;101985.38;5003239;28;20234;-74
2021/11/09 07:26:05;;;;;;;42.67;17.70;;;;;;;8.53;87.63;101998.59;4996403;28;20222;-73
2021/11/09 07:28:31;;;;;;;35.53;17.50;;;;;;;8.56;87.74;101997.63;5011390;28;20235;-71
2021/11/09 07:31:02;;;;;;;38.40;17.67;;;;;;;8.56;87.27;101998.50;4993900;28;20220;-71
2021/11/09 07:33:30;;;;;;;41.87;16.93;;;;;;;8.58;88.04;102001.97;4991869;28;20233;-71
2021/11/09 07:35:57;;;;;;;39.33;17.30;;;;;;;8.60;87.22;102007.19;4997336;28;20215;-69
2021/11/09 07:38:24;;;;;;;42.90;16.83;;;;;;;8.61;87.54;102006.28;4997582;28;20226;-71
2021/11/09 07:40:51;;;;;;;39.77;17.13;;;;;;;8.61;87.45;102007.16;4990878;28;20743;-73
2021/11/09 07:43:18;;;;;;;38.20;17.20;;;;;;;8.63;87.20;102007.09;5005697;28;20234;-73
2021/11/09 07:45:45;;;;;;;35.37;17.20;;;;;;;8.65;87.12;102014.09;5009059;28;20215;-71
2021/11/09 07:48:12;;;;;;;39.90;17.43;;;;;;;8.67;86.89;102008.75;4996870;28;20241;-71
2021/11/09 07:50:41;;;;;;;36.03;16.17;;;;;;;8.68;86.46;102019.31;4984851;28;20235;-71
2021/11/09 07:53:12;;;;;;;41.27;16.43;;;;;;;8.70;86.64;102024.59;5011406;28;20676;-70
2021/11/09 07:55:44;;;;;;;33.90;15.30;;;;;;;8.74;86.63;102031.53;5008165;28;20214;-73
2021/11/09 07:58:14;;;;;;;35.30;16.53;;;;;;;8.76;86.68;102026.19;5011107;28;20234;-72
2021/11/09 08:00:43;;;;;;;48.13;15.63;;;;;;;8.79;86.43;102029.56;4988995;28;20239;-72
2021/11/09 08:03:13;;;;;;;40.20;16.30;;;;;;;8.80;86.68;102033.97;4988788;28;20212;-71
2021/11/09 08:05:59;;;;;;;37.90;16.90;;;;;;;8.83;86.16;102025.91;4995583;28;20223;-69
2021/11/09 08:08:28;;;;;;;29.73;14.90;;;;;;;8.85;86.21;102032.03;4982571;28;20310;-71
2021/11/09 08:10:55;;;;;;;37.87;15.97;;;;;;;8.88;86.37;102031.06;4979003;28;20246;-71
2021/11/09 08:13:22;;;;;;;32.47;15.17;;;;;;;8.89;85.95;102031.00;5002596;28;20243;-71
2021/11/09 08:15:48;;;;;;;35.63;15.30;;;;;;;8.93;86.38;102030.00;5007811;28;20218;-71
2021/11/09 08:18:16;;;;;;;40.53;16.17;;;;;;;8.98;86.14;102035.13;5004930;28;20531;-74
2021/11/09 08:20:44;;;;;;;34.47;15.60;;;;;;;8.99;85.92;102027.09;5008474;28;20234;-71
2021/11/09 08:23:11;;;;;;;40.07;16.13;;;;;;;9.02;85.99;102029.66;4991269;28;20215;-71
2021/11/09 08:25:38;;;;;;;37.13;15.10;;;;;;;9.06;85.23;102038.41;4982797;28;20208;-72
2021/11/09 08:28:05;;;;;;;37.57;15.73;;;;;;;9.09;85.04;102040.09;5009242;28;20594;-72
2021/11/09 08:30:32;;;;;;;41.00;16.07;;;;;;;9.13;85.42;102033.75;5003707;28;20232;-73
2021/11/09 08:33:00;;;;;;;34.67;13.50;;;;;;;9.16;85.56;102036.28;4986318;28;20211;-71
2021/11/09 08:35:27;;;;;;;31.93;13.73;;;;;;;9.17;84.53;102038.00;4997605;28;20677;-72
2021/11/09 08:37:55;;;;;;;32.90;14.50;;;;;;;9.17;84.83;102053.94;5009962;28;20293;-73
2021/11/09 08:40:23;;;;;;;37.67;14.93;;;;;;;9.20;85.07;102053.84;4991603;28;20330;-73
2021/11/09 08:42:53;;;;;;;30.20;13.57;;;;;;;9.23;84.80;102051.09;4982907;28;20242;-72
2021/11/09 08:45:35;;;;;;;27.60;13.67;;;;;;;9.26;84.06;102051.00;4977258;28;20219;-72
2021/11/09 08:48:08;;;;;;;25.93;12.90;;;;;;;9.29;84.20;102048.22;4974832;28;20666;-71
2021/11/09 08:50:35;;;;;;;35.07;13.60;;;;;;;9.31;84.11;102051.69;4977460;28;20800;-72
2021/11/09 08:53:07;;;;;;;37.03;15.17;;;;;;;9.33;84.00;102049.81;4979282;28;20214;-71
2021/11/09 08:56:08;;;;;;;35.17;13.57;;;;;;;9.37;83.86;102046.13;4979113;28;20331;-73
2021/11/09 09:01:42;;;;;;;27.93;13.37;;;;;;;9.41;83.68;102047.78;4977191;28;20333;-72
2021/11/09 09:04:16;;;;;;;32.63;14.37;;;;;;;9.43;83.04;102045.94;4976453;28;20270;-73
2021/11/09 09:06:43;;;;;;;40.33;14.67;;;;;;;9.45;82.99;102043.22;4977773;28;20214;-72
2021/11/09 09:09:12;;;;;;;35.13;15.20;;;;;;;9.46;82.82;102044.94;4975947;28;20716;-73
2021/11/09 09:11:39;;;;;;;36.97;14.10;;;;;;;9.48;82.95;102049.28;4974712;28;20226;-73
2021/11/09 09:14:05;;;;;;;33.90;14.43;;;;;;;9.52;82.25;102050.91;4979025;28;20210;-72
2021/11/09 09:16:35;;;;;;;35.17;13.40;;;;;;;9.55;82.59;102055.25;4976485;28;20236;-70
2021/11/09 09:19:05;;;;;;;34.23;14.40;;;;;;;9.59;82.41;102055.06;4984726;28;20211;-74
2021/11/09 09:21:36;;;;;;;37.87;13.90;;;;;;;9.63;82.40;102056.72;4972659;28;20224;-72
2021/11/09 09:24:08;;;;;;;31.13;14.00;;;;;;;9.67;82.16;102055.66;4975971;28;20212;-73
2021/11/09 09:26:39;;;;;;;31.63;14.27;;;;;;;9.73;82.32;102055.44;4974086;28;20692;-74
2021/11/09 09:54:20;;;;;;;23.27;10.97;;;;;;;10.44;79.16;102065.09;5003711;28;20214;-75
2021/11/09 09:56:52;;;;;;;25.83;9.73;;;;;;;10.53;78.49;102063.88;5044874;28;20213;-76
2021/11/09 09:59:21;;;;;;;27.60;11.17;;;;;;;10.57;78.00;102053.97;5034273;28;20289;-76
2021/11/09 10:02:10;;;;;;;29.70;10.30;;;;;;;10.60;77.38;102048.50;5030922;28;20387;-76
2021/11/09 10:04:41;;;;;;;26.97;9.87;;;;;;;10.64;77.04;102050.97;5025433;28;20206;-76
2021/11/09 10:07:08;;;;;;;23.37;8.23;;;;;;;10.68;76.40;102041.94;5033349;28;20664;-76
2021/11/09 10:09:39;;;;;;;22.50;9.30;;;;;;;10.71;75.94;102040.94;5046659;28;20235;-76
2021/11/09 10:12:17;;;;;;;18.20;8.83;;;;;;;10.76;75.56;102049.59;5044060;28;20245;-74
2021/11/09 10:14:47;;;;;;;25.30;8.70;;;;;;;10.81;75.35;102052.06;5042094;28;20277;-75
2021/11/09 10:17:15;;;;;;;21.20;9.17;;;;;;;10.84;74.97;102047.47;5030633;28;20207;-75
2021/11/09 10:19:42;;;;;;;14.27;7.77;;;;;;;10.87;74.85;102047.34;5032186;28;20211;-76
2021/11/09 10:22:21;;;;;;;20.13;8.23;;;;;;;10.91;74.52;102048.97;5029988;28;20222;-76
2021/11/09 10:25:01;;;;;;;16.80;7.13;;;;;;;10.96;74.16;102046.06;5028490;28;20635;-76
2021/11/09 10:27:30;;;;;;;19.17;7.97;;;;;;;10.94;73.57;102032.81;5028458;28;20214;-75
2021/11/09 10:29:59;;;;;;;25.67;8.83;;;;;;;10.97;73.53;102040.69;5038117;28;20235;-76
2021/11/09 10:32:29;;;;;;;19.30;8.20;;;;;;;11.00;73.44;102035.22;5038351;28;20216;-76
2021/11/09 10:34:58;;;;;;;20.93;9.43;;;;;;;11.04;73.69;102038.63;5031537;28;20198;-76
2021/11/09 10:37:27;;;;;;;18.10;8.50;;;;;;;11.08;73.82;102030.44;5030187;28;20204;-75
2021/11/09 10:39:56;;;;;;;18.53;8.00;;;;;;;11.10;73.78;102041.03;5030165;28;20203;-74
2021/11/09 10:42:26;;;;;;;19.43;8.30;;;;;;;11.11;73.64;102046.28;5030129;28;20217;-76
2021/11/09 10:44:57;;;;;;;26.37;7.70;;;;;;;11.12;73.52;102045.34;5033108;28;20209;-75
2021/11/09 10:47:28;;;;;;;23.77;8.30;;;;;;;11.10;73.55;102044.56;5029873;28;20209;-75
2021/11/09 10:49:58;;;;;;;19.50;8.80;;;;;;;11.09;73.34;102040.19;5030800;28;20314;-75
2021/11/09 10:52:29;;;;;;;22.47;8.30;;;;;;;11.13;73.37;102032.88;5031040;28;20207;-75
2021/11/09 10:55:01;;;;;;;27.40;7.87;;;;;;;11.17;73.36;102033.63;5029796;28;20204;-76
2021/11/09 10:57:42;;;;;;;16.27;4.90;;;;;;;11.17;73.32;102034.50;5030505;28;20214;-75
2021/11/09 11:00:32;;;;;;;13.27;4.77;;;;;;;11.14;72.56;102027.50;5031391;28;20224;-75
2021/11/09 11:03:20;;;;;;;12.30;3.87;;;;;;;11.12;71.80;102021.34;5029397;28;20215;-75
2021/11/09 11:05:47;;;;;;;7.10;3.40;;;;;;;11.13;71.40;102016.88;5029824;28;20206;-75
2021/11/09 11:08:14;;;;;;;9.33;3.57;;;;;;;11.14;70.86;102016.81;5030879;28;20582;-76
2021/11/09 11:10:41;;;;;;;7.10;3.17;;;;;;;11.20;69.75;102010.38;5032076;28;20234;-75
2021/11/09 11:13:21;;;;;;;11.00;3.70;;;;;;;11.18;68.89;102012.22;5032933;28;20213;-76
2021/11/09 11:16:06;;;;;;;8.57;3.40;;;;;;;11.22;68.45;102011.16;5032595;28;20215;-75
2021/11/09 11:18:36;;;;;;;7.67;3.10;;;;;;;11.22;67.88;102011.16;5030743;28;20260;-75
2021/11/09 11:21:04;;;;;;;5.00;2.47;;;;;;;11.24;67.41;102008.44;5031271;28;21884;-75
2021/11/09 11:23:31;;;;;;;7.00;2.50;;;;;;;11.23;67.09;102007.56;5031224;28;21911;-76
2021/11/09 11:25:59;;;;;;;7.27;2.80;;;;;;;11.29;66.12;102003.72;5030394;28;20252;-75
2021/11/09 11:28:27;;;;;;;8.87;3.80;;;;;;;11.30;66.04;102009.00;5032610;28;20273;-75
2021/11/09 11:30:56;;;;;;;9.40;3.10;;;;;;;11.33;66.07;102000.00;5028779;28;20284;-75
2021/11/09 11:33:23;;;;;;;9.30;3.90;;;;;;;11.37;66.01;102007.81;5030383;28;20664;-75
2021/11/09 11:35:51;;;;;;;8.37;2.70;;;;;;;11.40;65.55;102005.00;5030856;28;20672;-76
2021/11/09 11:38:19;;;;;;;5.73;2.63;;;;;;;11.40;65.46;102005.00;5029626;28;20214;-77
2021/11/09 11:40:46;;;;;;;6.53;2.40;;;;;;;11.44;65.26;102000.41;5031043;28;20229;-76
2021/11/09 11:43:12;;;;;;;8.70;2.90;;;;;;;11.45;65.34;102003.00;5031086;28;20681;-76
2021/11/09 11:45:48;;;;;;;7.33;2.90;;;;;;;11.47;65.15;101998.44;5030525;28;20206;-75
2021/11/09 11:48:16;;;;;;;9.83;2.83;;;;;;;11.51;65.17;102001.84;5032382;28;20207;-76
2021/11/09 11:50:45;;;;;;;4.67;2.63;;;;;;;11.54;64.91;101995.50;5029265;28;20691;-77
2021/11/09 11:53:13;;;;;;;7.97;3.10;;;;;;;11.56;64.77;101998.97;5030809;28;20227;-75
2021/11/09 11:55:41;;;;;;;5.57;2.60;;;;;;;11.59;64.49;101999.69;5029416;28;20210;-76
2021/11/09 11:58:09;;;;;;;5.67;2.40;;;;;;;11.62;64.37;101999.56;5029070;28;20210;-76
2021/11/09 12:00:52;;;;;;;5.13;2.43;;;;;;;11.63;64.24;101998.63;5029835;28;20222;-76
2021/11/09 12:03:38;;;;;;;7.17;2.50;;;;;;;11.65;64.22;101995.84;5028240;28;20212;-76
2021/11/09 12:06:21;;;;;;;8.63;2.77;;;;;;;11.66;64.26;101990.44;5028365;28;20697;-76
2021/11/09 12:08:51;;;;;;;4.97;2.57;;;;;;;11.68;64.25;101993.06;5029414;28;20675;-76
2021/11/09 12:11:40;;;;;;;4.60;2.20;;;;;;;11.67;63.80;101986.84;5029745;28;20830;-76
2021/11/09 12:14:09;;;;;;;5.90;2.50;;;;;;;11.64;63.93;101984.34;5028605;28;20691;-76
2021/11/09 12:16:55;;;;;;;6.80;2.50;;;;;;;11.65;63.80;101991.38;5029653;28;20214;-76
2021/11/09 12:19:50;;;;;;;7.33;2.70;;;;;;;11.67;64.15;101989.50;5028894;28;20403;-75
2021/11/09 12:22:20;;;;;;;5.93;2.80;;;;;;;11.66;64.07;101985.13;5029755;28;20248;-76
2021/11/09 12:24:54;;;;;;;4.67;2.17;;;;;;;11.67;63.85;101986.84;5030677;28;20216;-75
2021/11/09 12:27:23;;;;;;;7.73;2.97;;;;;;;11.69;63.93;101982.31;5029807;28;20204;-76
2021/11/09 12:29:52;;;;;;;7.10;2.90;;;;;;;11.73;63.97;101985.72;5031065;28;20341;-73
2021/11/09 12:32:34;;;;;;;9.63;3.13;;;;;;;11.78;64.35;101983.72;5030589;28;20214;-73
2021/11/09 12:35:05;;;;;;;5.53;2.57;;;;;;;11.81;64.01;101979.13;5027024;28;20209;-72
2021/11/09 12:37:34;;;;;;;5.07;2.53;;;;;;;11.85;63.56;101978.94;5028354;28;20208;-72
2021/11/09 12:40:25;;;;;;;5.27;2.47;;;;;;;11.88;63.74;101979.66;5027056;28;20204;-72
2021/11/09 12:43:17;;;;;;;3.73;2.27;;;;;;;11.88;63.49;101973.47;5026185;28;20781;-72
2021/11/09 12:45:48;;;;;;;5.17;2.50;;;;;;;11.89;63.60;101975.19;5013982;28;20692;-71
2021/11/09 12:48:18;;;;;;;3.73;2.40;;;;;;;11.88;63.60;101974.34;5028405;28;20236;-72
2021/11/09 12:50:49;;;;;;;5.87;2.00;;;;;;;11.89;63.92;101969.84;5030458;28;20237;-72
2021/11/09 12:53:19;;;;;;;6.07;2.43;;;;;;;11.91;63.64;101966.19;5030396;28;20195;-72
2021/11/09 12:56:02;;;;;;;8.23;2.60;;;;;;;11.95;63.39;101958.91;5028271;28;20202;-72
2021/11/09 12:58:33;;;;;;;5.37;3.00;;;;;;;11.95;63.03;101958.91;5027094;28;20208;-72
2021/11/09 13:01:22;;;;;;;5.47;2.17;;;;;;;12.00;63.23;101951.53;5027271;28;20266;-71